Time;durP1;ratioP1;P1;durP2;ratioP2;P2;SDS_P1;SDS_P2;PMS_P1;PMS_P2;Temp;Humidity;BMP_temperature;BMP_pressure;BME280_temperature;BME280_humidity;BME280_pressure;Samples;Min_cycle;Max_cycle;Signal;HPM_P1;HPM_P2
2023/10/22 00:00:51;;;;;;;3.67;0.25;;;;;;;;;;5147023;27;20053;-81
2023/10/22 00:03:17;;;;;;;2.88;0.43;;;;;;;;;;5146898;27;20426;-81
2023/10/22 00:05:43;;;;;;;3.80;0.20;;;;;;;;;;5162729;27;20061;-81
2023/10/22 00:08:09;;;;;;;3.30;0.25;;;;;;;;;;5160882;27;20049;-81
2023/10/22 00:10:35;;;;;;;2.33;0.20;;;;;;;;;;5160683;27;20037;-81
2023/10/22 00:13:01;;;;;;;2.15;0.30;;;;;;;;;;5179143;27;20090;-81
2023/10/22 00:15:27;;;;;;;2.10;0.20;;;;;;;;;;5143602;27;20474;-81
2023/10/22 00:17:53;;;;;;;2.97;0.20;;;;;;;;;;5160722;27;20130;-81
2023/10/22 00:20:20;;;;;;;3.35;0.20;;;;;;;;;;5179120;27;20034;-80
2023/10/22 00:22:46;;;;;;;4.00;0.38;;;;;;;;;;5160469;27;20125;-81
2023/10/22 00:25:12;;;;;;;2.08;0.20;;;;;;;;;;5161398;27;20098;-81
2023/10/22 00:27:38;;;;;;;5.47;0.30;;;;;;;;;;5160600;27;20042;-81
2023/10/22 00:30:05;;;;;;;8.20;0.60;;;;;;;;;;5178848;27;20074;-81
2023/10/22 00:32:32;;;;;;;3.80;0.22;;;;;;;;;;5126409;27;20042;-82
2023/10/22 00:34:58;;;;;;;3.05;0.25;;;;;;;;;;5160078;27;20048;-81
2023/10/22 00:37:24;;;;;;;5.75;0.25;;;;;;;;;;5126063;27;20081;-81
2023/10/22 00:39:50;;;;;;;4.43;0.52;;;;;;;;;;5160138;27;20091;-82
2023/10/22 00:42:16;;;;;;;3.17;0.20;;;;;;;;;;5178309;27;20481;-81
2023/10/22 00:44:42;;;;;;;3.40;0.30;;;;;;;;;;5160217;27;20042;-81
2023/10/22 00:47:14;;;;;;;3.55;0.30;;;;;;;;;;5159971;27;20147;-81
2023/10/22 00:49:40;;;;;;;4.15;0.30;;;;;;;;;;5160425;27;20128;-79
2023/10/22 00:52:07;;;;;;;3.10;0.28;;;;;;;;;;5160086;27;20042;-79
2023/10/22 00:54:34;;;;;;;1.77;0.30;;;;;;;;;;5178686;27;20088;-79
2023/10/22 00:57:00;;;;;;;4.13;0.30;;;;;;;;;;5160013;27;20129;-79
2023/10/22 00:59:26;;;;;;;1.45;0.20;;;;;;;;;;5160168;27;20045;-79
2023/10/22 01:01:52;;;;;;;2.88;0.30;;;;;;;;;;5142616;27;20048;-79
2023/10/22 01:04:18;;;;;;;5.05;0.32;;;;;;;;;;5178720;27;20042;-79
2023/10/22 01:06:44;;;;;;;3.22;0.22;;;;;;;;;;5159466;27;20579;-80
2023/10/22 01:09:11;;;;;;;2.40;0.20;;;;;;;;;;5159665;27;20038;-79
2023/10/22 01:11:38;;;;;;;1.08;0.20;;;;;;;;;;5160060;27;20041;-78
2023/10/22 01:14:05;;;;;;;4.32;0.35;;;;;;;;;;5159605;27;20043;-79
2023/10/22 01:16:32;;;;;;;3.60;0.22;;;;;;;;;;5142849;27;20046;-79
2023/10/22 01:18:58;;;;;;;3.97;0.20;;;;;;;;;;5142614;27;20042;-79
2023/10/22 01:21:24;;;;;;;1.30;0.10;;;;;;;;;;5142152;27;20093;-79
2023/10/22 01:23:51;;;;;;;3.90;0.40;;;;;;;;;;5159796;27;20040;-79
2023/10/22 01:26:17;;;;;;;1.30;0.20;;;;;;;;;;5160259;27;20118;-78
2023/10/22 01:28:43;;;;;;;4.45;0.40;;;;;;;;;;5177675;27;20105;-79
2023/10/22 01:31:14;;;;;;;2.72;0.20;;;;;;;;;;5142020;27;20038;-78
2023/10/22 01:33:40;;;;;;;6.18;0.35;;;;;;;;;;5159926;27;20053;-79
2023/10/22 01:36:06;;;;;;;2.70;0.28;;;;;;;;;;5141918;27;20373;-79
2023/10/22 01:38:32;;;;;;;2.58;0.20;;;;;;;;;;5160089;27;20474;-79
2023/10/22 01:40:58;;;;;;;2.40;0.32;;;;;;;;;;5142030;27;20046;-79
2023/10/22 01:43:25;;;;;;;3.42;0.28;;;;;;;;;;5158865;27;20038;-78
2023/10/22 01:45:51;;;;;;;3.45;0.20;;;;;;;;;;5159787;27;20378;-79
2023/10/22 01:48:17;;;;;;;3.30;0.40;;;;;;;;;;5177480;27;20042;-79
2023/10/22 01:50:43;;;;;;;3.15;0.30;;;;;;;;;;5158494;27;20492;-79
2023/10/22 01:53:09;;;;;;;3.13;0.30;;;;;;;;;;5159634;27;20404;-78
2023/10/22 01:55:35;;;;;;;4.45;0.30;;;;;;;;;;5178003;27;20042;-78
2023/10/22 01:58:01;;;;;;;1.25;0.20;;;;;;;;;;5141503;27;20096;-78
2023/10/22 02:00:27;;;;;;;2.85;0.30;;;;;;;;;;5159373;27;20034;-79
2023/10/22 02:02:53;;;;;;;3.90;0.30;;;;;;;;;;5159561;27;20061;-79
2023/10/22 02:05:19;;;;;;;2.95;0.30;;;;;;;;;;5158753;27;20042;-79
2023/10/22 02:07:45;;;;;;;2.88;0.20;;;;;;;;;;5158864;27;20042;-79
2023/10/22 02:10:12;;;;;;;2.13;0.28;;;;;;;;;;5141243;27;20041;-79
2023/10/22 02:12:38;;;;;;;4.10;0.30;;;;;;;;;;5158298;27;20039;-79
2023/10/22 02:15:04;;;;;;;1.20;0.20;;;;;;;;;;5124358;27;20046;-79
2023/10/22 02:17:30;;;;;;;3.17;0.20;;;;;;;;;;5141085;27;20034;-78
2023/10/22 02:19:56;;;;;;;2.65;0.30;;;;;;;;;;5158372;27;20042;-79
2023/10/22 02:22:23;;;;;;;2.95;0.40;;;;;;;;;;5141121;27;20105;-78
2023/10/22 02:24:49;;;;;;;2.47;0.30;;;;;;;;;;5141086;27;20052;-78
2023/10/22 02:27:15;;;;;;;2.78;0.20;;;;;;;;;;5177196;27;20045;-78
2023/10/22 02:29:41;;;;;;;2.70;0.30;;;;;;;;;;5140374;27;20183;-78
2023/10/22 02:32:07;;;;;;;4.10;0.20;;;;;;;;;;5140602;27;20129;-79
2023/10/22 02:34:33;;;;;;;4.82;0.20;;;;;;;;;;5176687;27;20124;-79
2023/10/22 02:36:59;;;;;;;4.72;0.28;;;;;;;;;;5158155;27;20410;-78
2023/10/22 02:39:25;;;;;;;1.90;0.30;;;;;;;;;;5158998;27;20045;-78
2023/10/22 02:41:52;;;;;;;3.83;0.30;;;;;;;;;;5157828;27;20033;-79
2023/10/22 02:44:18;;;;;;;2.22;0.20;;;;;;;;;;5158051;27;20042;-79
2023/10/22 02:46:44;;;;;;;6.72;0.20;;;;;;;;;;5158418;27;20073;-78
2023/10/22 02:49:11;;;;;;;3.92;0.30;;;;;;;;;;5176363;27;20045;-79
2023/10/22 02:51:37;;;;;;;1.85;0.30;;;;;;;;;;5176908;27;20046;-80
2023/10/22 02:54:03;;;;;;;5.93;0.30;;;;;;;;;;5158417;27;20121;-80
2023/10/22 02:56:29;;;;;;;2.25;0.60;;;;;;;;;;5158288;27;20042;-79
2023/10/22 02:58:55;;;;;;;2.95;0.20;;;;;;;;;;5158100;27;20129;-79
2023/10/22 03:01:22;;;;;;;1.50;0.20;;;;;;;;;;5140644;27;20039;-79
2023/10/22 03:03:48;;;;;;;2.40;0.20;;;;;;;;;;5157691;27;20042;-79
2023/10/22 03:06:15;;;;;;;2.00;0.20;;;;;;;;;;5176099;27;20042;-78
2023/10/22 03:08:41;;;;;;;1.88;0.20;;;;;;;;;;5176922;27;20081;-79
2023/10/22 03:11:15;;;;;;;2.80;0.32;;;;;;;;;;5157520;27;20038;-80
2023/10/22 03:13:42;;;;;;;1.92;0.20;;;;;;;;;;5158029;27;20034;-79
2023/10/22 03:16:13;;;;;;;1.30;0.30;;;;;;;;;;5157772;27;20050;-79
2023/10/22 03:18:40;;;;;;;0.85;0.20;;;;;;;;;;5157917;27;20404;-80
2023/10/22 03:21:17;;;;;;;1.48;0.20;;;;;;;;;;5158476;27;20057;-80
2023/10/22 03:23:43;;;;;;;2.65;0.32;;;;;;;;;;5158255;27;20065;-80
2023/10/22 03:26:17;;;;;;;2.63;0.30;;;;;;;;;;5157766;27;20045;-78
2023/10/22 03:28:44;;;;;;;1.60;0.20;;;;;;;;;;5158093;27;20049;-80
2023/10/22 03:31:10;;;;;;;5.13;0.55;;;;;;;;;;5157476;27;20042;-79
2023/10/22 03:33:36;;;;;;;2.70;0.30;;;;;;;;;;5157298;27;20042;-80
2023/10/22 03:36:04;;;;;;;3.50;0.40;;;;;;;;;;5158140;27;20087;-79
2023/10/22 03:38:30;;;;;;;1.52;0.40;;;;;;;;;;5157407;27;20034;-80
2023/10/22 03:41:00;;;;;;;1.70;0.30;;;;;;;;;;5157320;27;20049;-79
2023/10/22 03:43:28;;;;;;;1.50;0.22;;;;;;;;;;5160958;27;20050;-80
2023/10/22 03:45:55;;;;;;;0.88;0.20;;;;;;;;;;5143815;27;20034;-80
2023/10/22 03:48:21;;;;;;;1.52;0.30;;;;;;;;;;5162752;27;20497;-81
2023/10/22 03:50:47;;;;;;;2.88;0.28;;;;;;;;;;5145029;27;20061;-81
2023/10/22 03:53:14;;;;;;;2.22;0.20;;;;;;;;;;5161969;27;20381;-81
2023/10/22 03:55:40;;;;;;;1.95;0.20;;;;;;;;;;5145160;27;20038;-81
2023/10/22 03:58:06;;;;;;;3.33;0.30;;;;;;;;;;5180361;27;20085;-81
2023/10/22 04:00:32;;;;;;;1.90;0.32;;;;;;;;;;5161734;27;20430;-82
2023/10/22 04:02:59;;;;;;;3.33;0.40;;;;;;;;;;5128241;27;20046;-81
2023/10/22 04:05:25;;;;;;;2.30;0.50;;;;;;;;;;5162286;27;20042;-82
2023/10/22 04:07:51;;;;;;;5.15;0.40;;;;;;;;;;5161601;27;20034;-82
2023/10/22 04:10:17;;;;;;;3.25;0.40;;;;;;;;;;5144678;27;20034;-82
2023/10/22 04:12:44;;;;;;;1.73;0.40;;;;;;;;;;5161437;27;20042;-82
2023/10/22 04:15:10;;;;;;;1.25;0.40;;;;;;;;;;5162770;27;20359;-82
2023/10/22 04:17:36;;;;;;;2.55;0.40;;;;;;;;;;5179684;27;20088;-82
2023/10/22 04:20:02;;;;;;;1.27;0.32;;;;;;;;;;5161985;27;20117;-81
2023/10/22 04:22:28;;;;;;;5.45;0.47;;;;;;;;;;5161129;27;20550;-81
2023/10/22 04:24:54;;;;;;;2.25;0.40;;;;;;;;;;5180542;27;20065;-81
2023/10/22 04:27:20;;;;;;;1.02;0.40;;;;;;;;;;5161119;27;20063;-81
2023/10/22 04:29:47;;;;;;;2.17;0.40;;;;;;;;;;5160781;27;20045;-82
2023/10/22 04:32:13;;;;;;;1.65;0.43;;;;;;;;;;5160774;27;20038;-83
2023/10/22 04:34:40;;;;;;;1.27;0.30;;;;;;;;;;5180036;27;20099;-83
2023/10/22 04:37:07;;;;;;;2.60;0.40;;;;;;;;;;5160905;27;20056;-82
2023/10/22 04:39:33;;;;;;;2.67;0.40;;;;;;;;;;5161716;27;20453;-83
2023/10/22 04:41:59;;;;;;;1.42;0.40;;;;;;;;;;5179424;27;20433;-82
2023/10/22 04:44:25;;;;;;;1.55;0.57;;;;;;;;;;5144769;27;20446;-81
2023/10/22 04:46:52;;;;;;;1.63;0.60;;;;;;;;;;5143490;27;20042;-82
2023/10/22 04:49:18;;;;;;;2.08;0.30;;;;;;;;;;5179024;27;20049;-82
2023/10/22 04:51:45;;;;;;;4.00;0.35;;;;;;;;;;5159445;27;20046;-82
2023/10/22 04:54:11;;;;;;;4.72;0.45;;;;;;;;;;5142836;27;20042;-80
2023/10/22 04:56:37;;;;;;;1.50;0.32;;;;;;;;;;5160392;27;20085;-80
2023/10/22 04:59:04;;;;;;;0.80;0.30;;;;;;;;;;5160437;27;20042;-81
2023/10/22 05:01:30;;;;;;;1.65;0.30;;;;;;;;;;5159745;27;20046;-81
2023/10/22 05:03:56;;;;;;;2.17;0.40;;;;;;;;;;5160685;27;20042;-80
2023/10/22 05:06:22;;;;;;;1.25;0.32;;;;;;;;;;5143346;27;20453;-81
2023/10/22 05:08:48;;;;;;;1.83;0.40;;;;;;;;;;5179390;27;20042;-81
2023/10/22 05:11:15;;;;;;;1.38;0.40;;;;;;;;;;5160373;27;20034;-81
2023/10/22 05:13:42;;;;;;;0.90;0.47;;;;;;;;;;5143267;27;20053;-82
2023/10/22 05:16:10;;;;;;;0.82;0.47;;;;;;;;;;5160579;27;20042;-82
2023/10/22 05:18:37;;;;;;;1.20;0.50;;;;;;;;;;5160102;27;20450;-83
2023/10/22 05:21:09;;;;;;;1.25;0.45;;;;;;;;;;5178212;27;20042;-82
2023/10/22 05:23:35;;;;;;;2.00;0.50;;;;;;;;;;5179414;27;20038;-83
2023/10/22 05:26:08;;;;;;;2.30;0.50;;;;;;;;;;5160308;27;20048;-83
2023/10/22 05:28:35;;;;;;;1.00;0.30;;;;;;;;;;5161249;27;20034;-84
2023/10/22 05:31:01;;;;;;;1.08;0.43;;;;;;;;;;5143799;27;20034;-83
2023/10/22 05:33:27;;;;;;;0.60;0.40;;;;;;;;;;5143327;27;20102;-83
2023/10/22 05:35:53;;;;;;;1.35;0.40;;;;;;;;;;5178881;27;20073;-82
2023/10/22 05:38:19;;;;;;;0.82;0.40;;;;;;;;;;5159330;27;20515;-84
2023/10/22 05:40:45;;;;;;;1.38;0.40;;;;;;;;;;5143377;27;20045;-84
2023/10/22 05:43:11;;;;;;;0.85;0.30;;;;;;;;;;5179064;27;20069;-83
2023/10/22 05:45:38;;;;;;;0.40;0.22;;;;;;;;;;5143630;27;20136;-83
2023/10/22 05:48:04;;;;;;;0.82;0.30;;;;;;;;;;5160832;27;20396;-82
2023/10/22 05:50:30;;;;;;;0.40;0.20;;;;;;;;;;5178205;27;20046;-82
2023/10/22 05:52:56;;;;;;;0.30;0.30;;;;;;;;;;5160145;27;20470;-83
2023/10/22 05:55:22;;;;;;;0.35;0.30;;;;;;;;;;5159859;27;20127;-82
2023/10/22 05:57:48;;;;;;;0.25;0.20;;;;;;;;;;5159722;27;20049;-82
2023/10/22 06:00:15;;;;;;;1.40;0.20;;;;;;;;;;5160962;27;20378;-82
2023/10/22 06:02:41;;;;;;;2.13;0.40;;;;;;;;;;5178121;27;20045;-82
2023/10/22 06:05:12;;;;;;;1.60;0.30;;;;;;;;;;5158042;27;20069;-82
2023/10/22 06:07:38;;;;;;;1.05;0.50;;;;;;;;;;5143636;27;20050;-83
2023/10/22 06:10:05;;;;;;;2.03;0.88;;;;;;;;;;5159034;27;20049;-82
2023/10/22 06:12:31;;;;;;;3.25;1.20;;;;;;;;;;5141950;27;20095;-82
2023/10/22 06:15:03;;;;;;;4.43;1.17;;;;;;;;;;5158970;27;20373;-82
2023/10/22 06:17:30;;;;;;;4.10;1.45;;;;;;;;;;5159799;27;20042;-82
2023/10/22 06:19:57;;;;;;;3.55;1.45;;;;;;;;;;5159714;27;20042;-83
2023/10/22 06:22:23;;;;;;;3.75;1.80;;;;;;;;;;5142120;27;20046;-81
2023/10/22 06:24:49;;;;;;;3.72;2.10;;;;;;;;;;5159362;27;20373;-82
2023/10/22 06:27:15;;;;;;;6.60;1.65;;;;;;;;;;5142148;27;20042;-84
2023/10/22 06:29:49;;;;;;;5.68;2.47;;;;;;;;;;5177708;27;20049;-83
2023/10/22 06:32:15;;;;;;;3.55;2.65;;;;;;;;;;5141899;27;20038;-83
2023/10/22 06:34:41;;;;;;;3.35;1.73;;;;;;;;;;5159358;27;20039;-84
2023/10/22 06:37:07;;;;;;;2.42;1.70;;;;;;;;;;5160524;27;20094;-82
2023/10/22 06:39:33;;;;;;;4.80;1.60;;;;;;;;;;5142194;27;20046;-83
2023/10/22 06:42:01;;;;;;;4.50;1.90;;;;;;;;;;5141686;27;20057;-82
2023/10/22 06:44:27;;;;;;;5.72;1.60;;;;;;;;;;5158954;27;20057;-82
2023/10/22 06:46:53;;;;;;;5.70;1.50;;;;;;;;;;5159595;27;20046;-81
2023/10/22 06:49:19;;;;;;;4.50;2.22;;;;;;;;;;5158545;27;20057;-81
2023/10/22 06:51:45;;;;;;;4.38;1.88;;;;;;;;;;5177326;27;20550;-82
2023/10/22 06:54:11;;;;;;;4.78;2.22;;;;;;;;;;5159110;27;20057;-81
2023/10/22 06:56:37;;;;;;;4.13;2.47;;;;;;;;;;5159018;27;20390;-81
2023/10/22 06:59:03;;;;;;;5.65;2.45;;;;;;;;;;5177281;27;20081;-81
2023/10/22 07:01:30;;;;;;;4.75;1.85;;;;;;;;;;5141314;27;20054;-81
2023/10/22 07:03:56;;;;;;;4.07;2.33;;;;;;;;;;5158484;27;20081;-80
2023/10/22 07:06:24;;;;;;;5.38;2.53;;;;;;;;;;5158608;27;20154;-81
2023/10/22 07:08:50;;;;;;;4.32;2.53;;;;;;;;;;5158540;27;20102;-80
2023/10/22 07:11:17;;;;;;;4.75;2.03;;;;;;;;;;5157928;27;20430;-81
2023/10/22 07:13:43;;;;;;;5.65;1.98;;;;;;;;;;5157722;27;20069;-80
2023/10/22 07:16:10;;;;;;;7.65;1.90;;;;;;;;;;5142565;27;20077;-80
2023/10/22 07:18:36;;;;;;;3.88;2.25;;;;;;;;;;5162145;27;20053;-80
2023/10/22 07:21:02;;;;;;;5.43;2.85;;;;;;;;;;5161859;27;20046;-80
2023/10/22 07:23:31;;;;;;;3.88;2.72;;;;;;;;;;5179853;27;20482;-80
2023/10/22 07:25:58;;;;;;;8.55;3.22;;;;;;;;;;5144343;27;20490;-80
2023/10/22 07:28:24;;;;;;;4.47;2.95;;;;;;;;;;5161642;27;20049;-79
2023/10/22 07:30:51;;;;;;;5.07;3.65;;;;;;;;;;5161675;27;20046;-80
2023/10/22 07:33:17;;;;;;;9.68;4.30;;;;;;;;;;5161593;27;20049;-80
2023/10/22 07:35:53;;;;;;;10.73;4.70;;;;;;;;;;5161320;27;20046;-80
2023/10/22 07:38:20;;;;;;;12.73;4.85;;;;;;;;;;5179877;27;20498;-80
2023/10/22 07:40:47;;;;;;;9.05;5.60;;;;;;;;;;5161500;27;20508;-80
2023/10/22 07:43:14;;;;;;;6.43;5.55;;;;;;;;;;5179923;27;20088;-80
2023/10/22 07:45:40;;;;;;;9.73;5.03;;;;;;;;;;5143930;27;20042;-81
2023/10/22 07:48:06;;;;;;;10.95;5.47;;;;;;;;;;5161625;27;20046;-81
2023/10/22 07:50:32;;;;;;;9.43;5.38;;;;;;;;;;5161067;27;20473;-81
2023/10/22 07:52:58;;;;;;;8.38;6.47;;;;;;;;;;5160734;27;20054;-81
2023/10/22 07:55:24;;;;;;;6.93;5.80;;;;;;;;;;5161097;27;20447;-81
2023/10/22 07:57:50;;;;;;;8.27;5.97;;;;;;;;;;5160998;27;20053;-80
2023/10/22 08:00:16;;;;;;;8.38;6.45;;;;;;;;;;5161326;27;20056;-80
2023/10/22 08:02:42;;;;;;;6.28;5.43;;;;;;;;;;5143664;27;20079;-80
2023/10/22 08:05:10;;;;;;;8.02;6.18;;;;;;;;;;5143741;27;20530;-80
2023/10/22 08:07:36;;;;;;;9.43;5.45;;;;;;;;;;5143593;27;20134;-81
2023/10/22 08:10:02;;;;;;;8.60;5.50;;;;;;;;;;5161176;27;20054;-80
2023/10/22 08:12:28;;;;;;;12.45;5.50;;;;;;;;;;5160733;27;20546;-81
2023/10/22 08:14:54;;;;;;;5.05;4.32;;;;;;;;;;5160589;27;20049;-81
2023/10/22 08:17:21;;;;;;;6.93;5.43;;;;;;;;;;5161066;27;20088;-81
2023/10/22 08:19:47;;;;;;;6.78;4.95;;;;;;;;;;5160267;27;20046;-80
2023/10/22 08:22:13;;;;;;;6.72;4.43;;;;;;;;;;5143166;27;20512;-80
2023/10/22 08:24:39;;;;;;;5.13;3.92;;;;;;;;;;5160461;27;20083;-80
2023/10/22 08:27:05;;;;;;;6.85;4.53;;;;;;;;;;5125395;27;20054;-81
2023/10/22 08:29:32;;;;;;;3.55;3.25;;;;;;;;;;5160626;27;20046;-81
2023/10/22 08:31:58;;;;;;;4.85;4.32;;;;;;;;;;5143763;27;20065;-80
2023/10/22 08:34:24;;;;;;;3.97;3.20;;;;;;;;;;5160420;27;20110;-80
2023/10/22 08:36:51;;;;;;;5.25;3.70;;;;;;;;;;5178684;27;20470;-81
2023/10/22 08:39:17;;;;;;;8.35;3.28;;;;;;;;;;5143316;27;20065;-81
2023/10/22 08:41:45;;;;;;;4.05;3.00;;;;;;;;;;5143768;27;20078;-80
2023/10/22 08:44:13;;;;;;;6.88;2.55;;;;;;;;;;5178604;27;20470;-79
2023/10/22 08:46:39;;;;;;;3.28;1.90;;;;;;;;;;5160963;27;20100;-80
2023/10/22 08:49:06;;;;;;;4.45;2.05;;;;;;;;;;5160060;27;20038;-79
2023/10/22 08:51:32;;;;;;;2.92;1.52;;;;;;;;;;5159542;27;20050;-80
2023/10/22 08:54:00;;;;;;;4.47;1.83;;;;;;;;;;5178435;27;20125;-80
2023/10/22 08:56:27;;;;;;;3.30;1.65;;;;;;;;;;5142674;27;20545;-79
2023/10/22 08:58:53;;;;;;;6.55;1.88;;;;;;;;;;5159989;27;20038;-79
2023/10/22 09:01:19;;;;;;;5.10;1.80;;;;;;;;;;5159683;27;20053;-80
2023/10/22 09:03:45;;;;;;;3.35;1.63;;;;;;;;;;5159510;27;20044;-80
2023/10/22 09:06:11;;;;;;;3.00;1.50;;;;;;;;;;5178997;27;20042;-81
2023/10/22 09:08:42;;;;;;;1.70;1.20;;;;;;;;;;5142466;27;20057;-80
2023/10/22 09:11:15;;;;;;;4.10;1.38;;;;;;;;;;5159385;27;20042;-80
2023/10/22 09:13:41;;;;;;;5.65;1.83;;;;;;;;;;5159593;27;20050;-79
2023/10/22 09:16:08;;;;;;;6.43;1.80;;;;;;;;;;5125245;27;20050;-79
2023/10/22 09:18:42;;;;;;;4.32;1.77;;;;;;;;;;5177920;27;20042;-80
2023/10/22 09:21:08;;;;;;;5.22;2.03;;;;;;;;;;5159306;27;20104;-80
2023/10/22 09:23:34;;;;;;;5.03;2.13;;;;;;;;;;5142249;27;20038;-80
2023/10/22 09:26:00;;;;;;;4.30;2.38;;;;;;;;;;5159368;27;20474;-80
2023/10/22 09:28:27;;;;;;;4.25;2.13;;;;;;;;;;5159131;27;20045;-79
2023/10/22 09:31:00;;;;;;;3.40;1.77;;;;;;;;;;5159211;27;20431;-80
2023/10/22 09:33:37;;;;;;;2.72;1.67;;;;;;;;;;5159135;27;20058;-80
2023/10/22 09:36:03;;;;;;;7.25;2.15;;;;;;;;;;5142132;27;20415;-79
2023/10/22 09:38:42;;;;;;;5.60;2.22;;;;;;;;;;5178095;27;20385;-80
2023/10/22 09:41:11;;;;;;;4.72;1.95;;;;;;;;;;5141932;27;20049;-80
2023/10/22 09:43:37;;;;;;;4.93;1.90;;;;;;;;;;5158974;27;20106;-81
2023/10/22 09:46:04;;;;;;;5.13;1.90;;;;;;;;;;5177430;27;20431;-80
2023/10/22 09:48:31;;;;;;;3.63;2.00;;;;;;;;;;5177881;27;20049;-80
2023/10/22 09:50:58;;;;;;;4.32;1.60;;;;;;;;;;5159086;27;20118;-81
2023/10/22 09:53:27;;;;;;;3.45;1.67;;;;;;;;;;5158927;27;20478;-80
2023/10/22 09:55:53;;;;;;;2.88;2.00;;;;;;;;;;5159233;27;20081;-80
2023/10/22 09:58:22;;;;;;;5.03;2.72;;;;;;;;;;5158857;27;20085;-81
2023/10/22 10:00:48;;;;;;;2.33;2.10;;;;;;;;;;5158737;27;20091;-80
2023/10/22 10:03:16;;;;;;;3.72;2.50;;;;;;;;;;5141555;27;20046;-80
2023/10/22 10:05:43;;;;;;;3.53;3.08;;;;;;;;;;5158536;27;20038;-80
2023/10/22 10:08:09;;;;;;;3.78;3.05;;;;;;;;;;5177327;27;20402;-81
2023/10/22 10:10:35;;;;;;;7.72;3.20;;;;;;;;;;5158609;27;20042;-80
2023/10/22 10:13:02;;;;;;;4.07;2.58;;;;;;;;;;5159397;27;20134;-80
2023/10/22 10:15:38;;;;;;;4.45;2.50;;;;;;;;;;5176908;27;20046;-81
2023/10/22 10:18:07;;;;;;;3.17;1.75;;;;;;;;;;5159122;27;20042;-80
2023/10/22 10:20:35;;;;;;;3.60;1.63;;;;;;;;;;5159225;27;20389;-81
2023/10/22 10:23:19;;;;;;;5.15;1.95;;;;;;;;;;5158121;27;20103;-80
2023/10/22 10:25:45;;;;;;;3.85;1.90;;;;;;;;;;5124760;27;20477;-80
2023/10/22 10:28:13;;;;;;;4.95;2.50;;;;;;;;;;5158232;27;20046;-81
2023/10/22 10:30:39;;;;;;;4.57;2.47;;;;;;;;;;5158352;27;20042;-81
2023/10/22 10:33:07;;;;;;;3.70;2.30;;;;;;;;;;5176514;27;20042;-81
2023/10/22 10:35:43;;;;;;;3.17;2.45;;;;;;;;;;5140807;27;20155;-81
2023/10/22 10:38:16;;;;;;;3.70;2.35;;;;;;;;;;5176742;27;20046;-80
2023/10/22 10:40:43;;;;;;;5.47;2.38;;;;;;;;;;5158107;27;20047;-81
2023/10/22 10:43:09;;;;;;;5.43;2.45;;;;;;;;;;5158826;27;20441;-81
2023/10/22 10:45:35;;;;;;;4.88;2.30;;;;;;;;;;5140438;27;20050;-81
2023/10/22 10:48:01;;;;;;;3.60;2.05;;;;;;;;;;5176368;27;20081;-81
2023/10/22 10:50:27;;;;;;;3.05;1.95;;;;;;;;;;5175779;27;20038;-81
2023/10/22 10:52:58;;;;;;;5.05;1.90;;;;;;;;;;5158803;27;20102;-81
2023/10/22 10:55:29;;;;;;;3.92;1.92;;;;;;;;;;5123832;27;20505;-81
2023/10/22 10:57:55;;;;;;;4.15;2.15;;;;;;;;;;5158981;27;20047;-81
2023/10/22 11:00:30;;;;;;;2.72;2.03;;;;;;;;;;5157988;27;20064;-81
2023/10/22 11:02:58;;;;;;;2.50;2.15;;;;;;;;;;5140504;27;20095;-81
2023/10/22 11:05:42;;;;;;;2.97;1.67;;;;;;;;;;5176257;27;20053;-80
2023/10/22 11:08:12;;;;;;;2.58;2.25;;;;;;;;;;5158400;27;20081;-81
2023/10/22 11:10:38;;;;;;;5.28;1.80;;;;;;;;;;5157632;27;20049;-80
2023/10/22 11:13:06;;;;;;;3.35;1.60;;;;;;;;;;5157660;27;20371;-81
2023/10/22 11:15:36;;;;;;;3.40;1.60;;;;;;;;;;5175712;27;20438;-81
2023/10/22 11:18:10;;;;;;;3.45;2.28;;;;;;;;;;5157722;27;20050;-81
2023/10/22 11:20:37;;;;;;;1.75;1.10;;;;;;;;;;5140303;27;20048;-81
2023/10/22 11:23:03;;;;;;;2.72;1.00;;;;;;;;;;5140707;27;20046;-81
2023/10/22 11:25:30;;;;;;;3.08;1.15;;;;;;;;;;5158425;27;20061;-81
2023/10/22 11:27:58;;;;;;;3.55;1.00;;;;;;;;;;5158003;27;20053;-80
2023/10/22 11:30:36;;;;;;;1.98;0.40;;;;;;;;;;5157455;27;20054;-82
2023/10/22 11:33:22;;;;;;;3.35;0.50;;;;;;;;;;5158320;27;20081;-81
2023/10/22 11:35:49;;;;;;;2.90;0.90;;;;;;;;;;5176078;27;20125;-82
2023/10/22 11:38:21;;;;;;;5.18;0.55;;;;;;;;;;5140546;27;20125;-82
2023/10/22 11:40:53;;;;;;;4.45;0.70;;;;;;;;;;5158481;27;20089;-81
2023/10/22 11:43:19;;;;;;;1.50;0.40;;;;;;;;;;5158252;27;20049;-80
2023/10/22 11:45:52;;;;;;;4.03;0.50;;;;;;;;;;5157229;27;20042;-81
2023/10/22 11:48:19;;;;;;;2.05;0.40;;;;;;;;;;5157388;27;20045;-81
2023/10/22 11:50:46;;;;;;;0.95;0.35;;;;;;;;;;5175340;27;20136;-81
2023/10/22 11:53:12;;;;;;;1.13;0.40;;;;;;;;;;5157672;27;20043;-81
2023/10/22 11:55:39;;;;;;;2.80;0.40;;;;;;;;;;5157561;27;20042;-81
2023/10/22 11:58:05;;;;;;;2.00;0.50;;;;;;;;;;5156902;27;20092;-81
2023/10/22 12:00:31;;;;;;;2.10;0.40;;;;;;;;;;5157180;27;20038;-81
2023/10/22 12:02:57;;;;;;;1.42;0.30;;;;;;;;;;5141604;27;20034;-81
2023/10/22 12:05:23;;;;;;;5.38;0.50;;;;;;;;;;5180383;27;20365;-81
2023/10/22 12:07:49;;;;;;;2.33;0.30;;;;;;;;;;5179606;27;20507;-81
2023/10/22 12:10:17;;;;;;;5.25;0.40;;;;;;;;;;5160609;27;20042;-80
2023/10/22 12:12:43;;;;;;;3.22;0.60;;;;;;;;;;5143315;27;20481;-82
2023/10/22 12:15:10;;;;;;;1.02;0.30;;;;;;;;;;5143999;27;20042;-81
2023/10/22 12:17:37;;;;;;;2.30;0.17;;;;;;;;;;5144501;27;20098;-81
2023/10/22 12:20:03;;;;;;;0.57;0.20;;;;;;;;;;5161531;27;20091;-82
2023/10/22 12:22:29;;;;;;;0.40;0.10;;;;;;;;;;5179590;27;20370;-81
2023/10/22 12:24:57;;;;;;;0.57;0.00;;;;;;;;;;5160848;27;20050;-82
2023/10/22 12:27:23;;;;;;;0.32;0.10;;;;;;;;;;5144155;27;20050;-82
2023/10/22 12:29:49;;;;;;;0.77;0.10;;;;;;;;;;5180016;27;20077;-81
2023/10/22 12:32:15;;;;;;;0.88;0.13;;;;;;;;;;5160762;27;20099;-81
2023/10/22 12:34:41;;;;;;;1.20;0.10;;;;;;;;;;5143207;27;20478;-81
2023/10/22 12:37:07;;;;;;;1.08;0.10;;;;;;;;;;5160512;27;20054;-80
2023/10/22 12:39:33;;;;;;;1.02;0.20;;;;;;;;;;5160346;27;20125;-81
2023/10/22 12:41:59;;;;;;;0.82;0.10;;;;;;;;;;5142913;27;20038;-81
2023/10/22 12:44:25;;;;;;;0.47;0.10;;;;;;;;;;5142906;27;20466;-81
2023/10/22 12:46:51;;;;;;;2.65;0.20;;;;;;;;;;5160235;27;20049;-81
2023/10/22 12:49:18;;;;;;;0.80;0.13;;;;;;;;;;5178498;27;20075;-81
2023/10/22 12:51:44;;;;;;;0.43;0.20;;;;;;;;;;5159732;27;20089;-80
2023/10/22 12:54:10;;;;;;;1.15;0.20;;;;;;;;;;5178469;27;20507;-80
2023/10/22 12:56:36;;;;;;;1.15;0.20;;;;;;;;;;5160363;27;20190;-80
2023/10/22 12:59:02;;;;;;;0.82;0.20;;;;;;;;;;5159506;27;20482;-80
2023/10/22 13:01:28;;;;;;;1.48;0.20;;;;;;;;;;5178517;27;20042;-81
2023/10/22 13:03:54;;;;;;;2.50;0.30;;;;;;;;;;5159801;27;20042;-81
2023/10/22 13:06:20;;;;;;;3.20;0.20;;;;;;;;;;5143570;27;20046;-81
2023/10/22 13:08:47;;;;;;;2.38;0.30;;;;;;;;;;5160261;27;20042;-81
2023/10/22 13:11:17;;;;;;;1.35;0.30;;;;;;;;;;5178065;27;20046;-81
2023/10/22 13:13:44;;;;;;;1.00;0.20;;;;;;;;;;5160173;27;20043;-81
2023/10/22 13:16:10;;;;;;;1.75;0.30;;;;;;;;;;5159591;27;20077;-80
2023/10/22 13:18:36;;;;;;;0.80;0.30;;;;;;;;;;5142455;27;20512;-80
2023/10/22 13:21:02;;;;;;;2.00;0.20;;;;;;;;;;5177906;27;20046;-81
2023/10/22 13:23:28;;;;;;;1.45;0.30;;;;;;;;;;5142780;27;20050;-81
2023/10/22 13:25:55;;;;;;;2.15;0.30;;;;;;;;;;5160349;27;20042;-81
2023/10/22 13:28:22;;;;;;;2.30;0.20;;;;;;;;;;5142600;27;20500;-81
2023/10/22 13:30:48;;;;;;;2.05;0.40;;;;;;;;;;5159107;27;20500;-81
2023/10/22 13:33:14;;;;;;;1.13;0.30;;;;;;;;;;5159210;27;20050;-81
2023/10/22 13:35:41;;;;;;;0.52;0.20;;;;;;;;;;5159081;27;20038;-81
2023/10/22 13:38:07;;;;;;;4.03;0.30;;;;;;;;;;5159522;27;20132;-80
2023/10/22 13:40:33;;;;;;;3.13;0.20;;;;;;;;;;5159791;27;20043;-81
2023/10/22 13:42:59;;;;;;;1.48;0.20;;;;;;;;;;5158815;27;20052;-81
2023/10/22 13:45:25;;;;;;;1.20;0.20;;;;;;;;;;5141417;27;20493;-81
2023/10/22 13:47:51;;;;;;;0.88;0.20;;;;;;;;;;5159024;27;20527;-81
2023/10/22 13:50:17;;;;;;;0.57;0.28;;;;;;;;;;5158636;27;20046;-81
2023/10/22 13:52:44;;;;;;;1.25;0.20;;;;;;;;;;5158928;27;20046;-80
2023/10/22 13:55:10;;;;;;;1.30;0.10;;;;;;;;;;5158934;27;20125;-80
2023/10/22 13:57:37;;;;;;;0.30;0.20;;;;;;;;;;5141544;27;20137;-81
2023/10/22 14:00:04;;;;;;;1.52;0.10;;;;;;;;;;5142285;27;20053;-80
2023/10/22 14:02:31;;;;;;;9.02;0.20;;;;;;;;;;5177057;27;20087;-81
2023/10/22 14:04:58;;;;;;;1.75;0.20;;;;;;;;;;5158382;27;20530;-80
2023/10/22 14:07:24;;;;;;;1.85;0.10;;;;;;;;;;5141420;27;20057;-81
2023/10/22 14:09:50;;;;;;;1.50;0.20;;;;;;;;;;5177016;27;20049;-81
2023/10/22 14:12:16;;;;;;;2.83;0.20;;;;;;;;;;5158500;27;20042;-81
2023/10/22 14:14:44;;;;;;;0.50;0.20;;;;;;;;;;5158469;27;20554;-81
2023/10/22 14:17:10;;;;;;;1.60;0.20;;;;;;;;;;5177389;27;20046;-80
2023/10/22 14:19:36;;;;;;;1.65;0.30;;;;;;;;;;5158435;27;20182;-80
2023/10/22 14:22:02;;;;;;;0.50;0.10;;;;;;;;;;5141330;27;20034;-80
2023/10/22 14:24:30;;;;;;;1.98;0.15;;;;;;;;;;5158236;27;20474;-80
2023/10/22 14:26:56;;;;;;;2.03;0.20;;;;;;;;;;5158850;27;20374;-80
2023/10/22 14:29:22;;;;;;;0.70;0.20;;;;;;;;;;5159190;27;20041;-80
2023/10/22 14:31:48;;;;;;;2.13;0.20;;;;;;;;;;5158926;27;20038;-81
2023/10/22 14:34:17;;;;;;;4.07;0.30;;;;;;;;;;5176636;27;20053;-81
2023/10/22 14:36:43;;;;;;;1.85;0.20;;;;;;;;;;5157955;27;20081;-80
2023/10/22 14:39:10;;;;;;;1.00;0.20;;;;;;;;;;5158078;27;20124;-80
2023/10/22 14:41:36;;;;;;;1.23;0.20;;;;;;;;;;5157895;27;20414;-81